sensor_id;sensor_type;location;lat;lon;timestamp;P1;durP1;ratioP1;P2;durP2;ratioP2
74371;SDS011;62885;51.374;6.170;2023-07-08T00:00:51;7.72;;;2.20;;
74371;SDS011;62885;51.374;6.170;2023-07-08T00:03:18;7.15;;;2.40;;
74371;SDS011;62885;51.374;6.170;2023-07-08T00:05:45;6.65;;;2.50;;
74371;SDS011;62885;51.374;6.170;2023-07-08T00:08:19;5.97;;;2.30;;
74371;SDS011;62885;51.374;6.170;2023-07-08T00:10:46;6.63;;;2.33;;
74371;SDS011;62885;51.374;6.170;2023-07-08T00:13:11;5.07;;;2.05;;
74371;SDS011;62885;51.374;6.170;2023-07-08T00:15:37;3.88;;;2.20;;
74371;SDS011;62885;51.374;6.170;2023-07-08T00:18:09;4.00;;;2.03;;
74371;SDS011;62885;51.374;6.170;2023-07-08T00:20:38;6.95;;;2.58;;
74371;SDS011;62885;51.374;6.170;2023-07-08T00:23:04;4.75;;;2.35;;
74371;SDS011;62885;51.374;6.170;2023-07-08T00:25:30;7.03;;;2.58;;
74371;SDS011;62885;51.374;6.170;2023-07-08T00:27:56;4.05;;;2.15;;
74371;SDS011;62885;51.374;6.170;2023-07-08T00:30:22;6.90;;;2.60;;
74371;SDS011;62885;51.374;6.170;2023-07-08T00:32:49;5.25;;;2.25;;
74371;SDS011;62885;51.374;6.170;2023-07-08T00:37:57;4.97;;;2.38;;
74371;SDS011;62885;51.374;6.170;2023-07-08T00:40:37;4.63;;;2.30;;
74371;SDS011;62885;51.374;6.170;2023-07-08T00:43:13;7.50;;;2.05;;
74371;SDS011;62885;51.374;6.170;2023-07-08T00:45:49;5.30;;;2.35;;
74371;SDS011;62885;51.374;6.170;2023-07-08T00:48:25;7.50;;;2.35;;
74371;SDS011;62885;51.374;6.170;2023-07-08T00:50:55;5.70;;;2.22;;
74371;SDS011;62885;51.374;6.170;2023-07-08T00:55:53;5.57;;;2.55;;
74371;SDS011;62885;51.374;6.170;2023-07-08T00:58:23;4.95;;;2.33;;
74371;SDS011;62885;51.374;6.170;2023-07-08T01:00:50;4.88;;;2.22;;
74371;SDS011;62885;51.374;6.170;2023-07-08T01:03:18;4.32;;;2.30;;
74371;SDS011;62885;51.374;6.170;2023-07-08T01:05:45;5.40;;;2.47;;
74371;SDS011;62885;51.374;6.170;2023-07-08T01:08:11;6.18;;;2.60;;
74371;SDS011;62885;51.374;6.170;2023-07-08T01:10:39;5.68;;;2.50;;
74371;SDS011;62885;51.374;6.170;2023-07-08T01:13:11;5.05;;;2.20;;
74371;SDS011;62885;51.374;6.170;2023-07-08T01:15:40;5.47;;;2.47;;
74371;SDS011;62885;51.374;6.170;2023-07-08T01:18:08;4.45;;;2.25;;
74371;SDS011;62885;51.374;6.170;2023-07-08T01:20:35;5.57;;;2.22;;
74371;SDS011;62885;51.374;6.170;2023-07-08T01:23:00;4.97;;;2.33;;
74371;SDS011;62885;51.374;6.170;2023-07-08T01:25:26;5.40;;;2.65;;
74371;SDS011;62885;51.374;6.170;2023-07-08T01:27:53;5.32;;;2.60;;
74371;SDS011;62885;51.374;6.170;2023-07-08T01:30:20;5.40;;;2.38;;
74371;SDS011;62885;51.374;6.170;2023-07-08T01:32:49;4.95;;;2.53;;
74371;SDS011;62885;51.374;6.170;2023-07-08T01:35:20;5.05;;;2.55;;
74371;SDS011;62885;51.374;6.170;2023-07-08T01:37:49;6.97;;;2.80;;
74371;SDS011;62885;51.374;6.170;2023-07-08T01:42:44;6.10;;;2.60;;
74371;SDS011;62885;51.374;6.170;2023-07-08T01:45:10;4.30;;;2.30;;
74371;SDS011;62885;51.374;6.170;2023-07-08T01:47:37;6.15;;;2.67;;
74371;SDS011;62885;51.374;6.170;2023-07-08T01:50:04;6.85;;;2.55;;
74371;SDS011;62885;51.374;6.170;2023-07-08T01:52:30;8.05;;;3.10;;
74371;SDS011;62885;51.374;6.170;2023-07-08T01:54:55;6.00;;;2.47;;
74371;SDS011;62885;51.374;6.170;2023-07-08T01:57:21;6.43;;;2.78;;
74371;SDS011;62885;51.374;6.170;2023-07-08T01:59:46;5.35;;;2.60;;
74371;SDS011;62885;51.374;6.170;2023-07-08T02:02:12;7.18;;;3.33;;
74371;SDS011;62885;51.374;6.170;2023-07-08T02:04:38;5.07;;;2.75;;
74371;SDS011;62885;51.374;6.170;2023-07-08T02:07:03;5.60;;;2.75;;
74371;SDS011;62885;51.374;6.170;2023-07-08T02:09:29;6.65;;;2.60;;
74371;SDS011;62885;51.374;6.170;2023-07-08T02:11:55;9.35;;;2.45;;
74371;SDS011;62885;51.374;6.170;2023-07-08T02:14:21;6.50;;;2.47;;
74371;SDS011;62885;51.374;6.170;2023-07-08T02:16:46;7.07;;;3.13;;
74371;SDS011;62885;51.374;6.170;2023-07-08T02:19:12;6.10;;;2.80;;
74371;SDS011;62885;51.374;6.170;2023-07-08T02:21:38;6.85;;;2.70;;
74371;SDS011;62885;51.374;6.170;2023-07-08T02:24:04;6.47;;;2.75;;
74371;SDS011;62885;51.374;6.170;2023-07-08T02:26:30;6.90;;;2.85;;
74371;SDS011;62885;51.374;6.170;2023-07-08T02:28:58;7.13;;;2.65;;
74371;SDS011;62885;51.374;6.170;2023-07-08T02:31:25;6.90;;;2.72;;
74371;SDS011;62885;51.374;6.170;2023-07-08T02:33:50;7.38;;;2.70;;
74371;SDS011;62885;51.374;6.170;2023-07-08T02:36:16;11.20;;;2.63;;
74371;SDS011;62885;51.374;6.170;2023-07-08T02:38:42;6.85;;;3.00;;
74371;SDS011;62885;51.374;6.170;2023-07-08T02:41:07;5.32;;;2.25;;
74371;SDS011;62885;51.374;6.170;2023-07-08T02:43:33;8.43;;;2.60;;
74371;SDS011;62885;51.374;6.170;2023-07-08T02:45:58;9.50;;;2.90;;
74371;SDS011;62885;51.374;6.170;2023-07-08T02:48:23;4.78;;;2.42;;
74371;SDS011;62885;51.374;6.170;2023-07-08T02:50:49;5.03;;;2.55;;
74371;SDS011;62885;51.374;6.170;2023-07-08T02:53:14;4.95;;;2.45;;
74371;SDS011;62885;51.374;6.170;2023-07-08T02:55:40;6.18;;;2.67;;
74371;SDS011;62885;51.374;6.170;2023-07-08T02:58:07;5.18;;;2.80;;
74371;SDS011;62885;51.374;6.170;2023-07-08T03:00:35;6.47;;;2.92;;
74371;SDS011;62885;51.374;6.170;2023-07-08T03:03:02;5.07;;;2.90;;
74371;SDS011;62885;51.374;6.170;2023-07-08T03:05:28;5.72;;;2.55;;
74371;SDS011;62885;51.374;6.170;2023-07-08T03:07:53;5.97;;;3.05;;
74371;SDS011;62885;51.374;6.170;2023-07-08T03:10:19;6.40;;;2.85;;
74371;SDS011;62885;51.374;6.170;2023-07-08T03:12:44;6.30;;;2.53;;
74371;SDS011;62885;51.374;6.170;2023-07-08T03:15:10;5.18;;;2.78;;
74371;SDS011;62885;51.374;6.170;2023-07-08T03:17:35;5.15;;;2.65;;
74371;SDS011;62885;51.374;6.170;2023-07-08T03:20:00;8.23;;;2.90;;
74371;SDS011;62885;51.374;6.170;2023-07-08T03:22:26;6.68;;;2.58;;
74371;SDS011;62885;51.374;6.170;2023-07-08T03:24:51;4.78;;;2.78;;
74371;SDS011;62885;51.374;6.170;2023-07-08T03:27:17;6.43;;;3.00;;
74371;SDS011;62885;51.374;6.170;2023-07-08T03:29:42;4.95;;;2.75;;
74371;SDS011;62885;51.374;6.170;2023-07-08T03:32:09;6.53;;;3.05;;
74371;SDS011;62885;51.374;6.170;2023-07-08T03:34:36;8.55;;;3.58;;
74371;SDS011;62885;51.374;6.170;2023-07-08T03:37:01;7.15;;;3.20;;
74371;SDS011;62885;51.374;6.170;2023-07-08T03:39:27;6.65;;;3.03;;
74371;SDS011;62885;51.374;6.170;2023-07-08T03:41:52;7.07;;;2.72;;
74371;SDS011;62885;51.374;6.170;2023-07-08T03:44:18;7.20;;;2.97;;
74371;SDS011;62885;51.374;6.170;2023-07-08T03:46:44;7.00;;;3.08;;
74371;SDS011;62885;51.374;6.170;2023-07-08T03:49:11;6.97;;;3.85;;
74371;SDS011;62885;51.374;6.170;2023-07-08T03:51:38;9.63;;;3.13;;
74371;SDS011;62885;51.374;6.170;2023-07-08T03:54:05;9.32;;;3.08;;
74371;SDS011;62885;51.374;6.170;2023-07-08T03:56:33;9.73;;;3.30;;
74371;SDS011;62885;51.374;6.170;2023-07-08T03:58:59;5.88;;;2.67;;
74371;SDS011;62885;51.374;6.170;2023-07-08T04:01:25;7.13;;;2.83;;
74371;SDS011;62885;51.374;6.170;2023-07-08T04:03:51;6.75;;;3.20;;
74371;SDS011;62885;51.374;6.170;2023-07-08T04:06:18;8.70;;;2.97;;
74371;SDS011;62885;51.374;6.170;2023-07-08T04:08:44;7.13;;;3.10;;
74371;SDS011;62885;51.374;6.170;2023-07-08T04:11:13;8.52;;;3.00;;
74371;SDS011;62885;51.374;6.170;2023-07-08T04:13:40;8.55;;;3.10;;
74371;SDS011;62885;51.374;6.170;2023-07-08T04:16:07;6.30;;;3.15;;
74371;SDS011;62885;51.374;6.170;2023-07-08T04:18:39;6.30;;;2.70;;
74371;SDS011;62885;51.374;6.170;2023-07-08T04:21:05;6.60;;;2.67;;
74371;SDS011;62885;51.374;6.170;2023-07-08T04:23:31;6.97;;;3.50;;
74371;SDS011;62885;51.374;6.170;2023-07-08T04:25:56;6.72;;;3.53;;
74371;SDS011;62885;51.374;6.170;2023-07-08T04:28:23;6.43;;;2.60;;
74371;SDS011;62885;51.374;6.170;2023-07-08T04:30:48;6.68;;;3.00;;
74371;SDS011;62885;51.374;6.170;2023-07-08T04:33:14;9.07;;;2.92;;
74371;SDS011;62885;51.374;6.170;2023-07-08T04:35:40;7.15;;;3.03;;
74371;SDS011;62885;51.374;6.170;2023-07-08T04:38:17;7.47;;;3.05;;
74371;SDS011;62885;51.374;6.170;2023-07-08T04:40:46;6.30;;;2.60;;
74371;SDS011;62885;51.374;6.170;2023-07-08T04:43:11;7.05;;;2.80;;
74371;SDS011;62885;51.374;6.170;2023-07-08T04:45:37;6.43;;;3.25;;
74371;SDS011;62885;51.374;6.170;2023-07-08T04:48:04;9.52;;;3.08;;
74371;SDS011;62885;51.374;6.170;2023-07-08T04:50:41;6.35;;;3.05;;
74371;SDS011;62885;51.374;6.170;2023-07-08T04:53:07;8.55;;;3.10;;
74371;SDS011;62885;51.374;6.170;2023-07-08T04:55:37;8.48;;;2.63;;
74371;SDS011;62885;51.374;6.170;2023-07-08T04:58:06;6.20;;;2.72;;
74371;SDS011;62885;51.374;6.170;2023-07-08T05:00:31;8.23;;;2.90;;
74371;SDS011;62885;51.374;6.170;2023-07-08T05:02:57;6.90;;;3.00;;
74371;SDS011;62885;51.374;6.170;2023-07-08T05:05:22;6.03;;;2.72;;
74371;SDS011;62885;51.374;6.170;2023-07-08T05:07:48;6.15;;;2.70;;
74371;SDS011;62885;51.374;6.170;2023-07-08T05:10:14;7.40;;;2.78;;
74371;SDS011;62885;51.374;6.170;2023-07-08T05:12:41;7.40;;;2.65;;
74371;SDS011;62885;51.374;6.170;2023-07-08T05:15:07;8.73;;;3.20;;
74371;SDS011;62885;51.374;6.170;2023-07-08T05:17:34;7.40;;;3.35;;
74371;SDS011;62885;51.374;6.170;2023-07-08T05:20:00;5.93;;;2.78;;
74371;SDS011;62885;51.374;6.170;2023-07-08T05:22:26;7.25;;;2.80;;
74371;SDS011;62885;51.374;6.170;2023-07-08T05:24:52;6.80;;;2.92;;
74371;SDS011;62885;51.374;6.170;2023-07-08T05:27:20;4.78;;;2.13;;
74371;SDS011;62885;51.374;6.170;2023-07-08T05:29:49;6.15;;;2.75;;
74371;SDS011;62885;51.374;6.170;2023-07-08T05:32:16;5.88;;;2.97;;
74371;SDS011;62885;51.374;6.170;2023-07-08T05:34:42;4.70;;;2.40;;
74371;SDS011;62885;51.374;6.170;2023-07-08T05:37:08;9.77;;;3.65;;
74371;SDS011;62885;51.374;6.170;2023-07-08T05:39:34;8.23;;;3.05;;
74371;SDS011;62885;51.374;6.170;2023-07-08T05:41:59;7.13;;;2.85;;
74371;SDS011;62885;51.374;6.170;2023-07-08T05:44:25;7.65;;;3.22;;
74371;SDS011;62885;51.374;6.170;2023-07-08T05:46:50;7.20;;;3.20;;
74371;SDS011;62885;51.374;6.170;2023-07-08T05:49:16;6.40;;;2.92;;
74371;SDS011;62885;51.374;6.170;2023-07-08T05:51:43;6.90;;;2.95;;
74371;SDS011;62885;51.374;6.170;2023-07-08T05:54:09;5.60;;;2.45;;
74371;SDS011;62885;51.374;6.170;2023-07-08T05:56:34;6.32;;;3.08;;
74371;SDS011;62885;51.374;6.170;2023-07-08T05:59:00;9.40;;;2.88;;
74371;SDS011;62885;51.374;6.170;2023-07-08T06:01:25;7.90;;;3.30;;
74371;SDS011;62885;51.374;6.170;2023-07-08T06:03:51;7.30;;;2.80;;
74371;SDS011;62885;51.374;6.170;2023-07-08T06:06:17;6.95;;;2.80;;
74371;SDS011;62885;51.374;6.170;2023-07-08T06:08:42;6.50;;;3.22;;
74371;SDS011;62885;51.374;6.170;2023-07-08T06:11:08;6.35;;;2.67;;
74371;SDS011;62885;51.374;6.170;2023-07-08T06:13:33;6.07;;;2.80;;
74371;SDS011;62885;51.374;6.170;2023-07-08T06:16:00;9.88;;;4.45;;
74371;SDS011;62885;51.374;6.170;2023-07-08T06:18:26;9.23;;;3.97;;
74371;SDS011;62885;51.374;6.170;2023-07-08T06:20:55;5.68;;;2.70;;
74371;SDS011;62885;51.374;6.170;2023-07-08T06:23:22;8.52;;;3.67;;
74371;SDS011;62885;51.374;6.170;2023-07-08T06:25:48;6.43;;;2.75;;
74371;SDS011;62885;51.374;6.170;2023-07-08T06:28:14;5.75;;;2.83;;
74371;SDS011;62885;51.374;6.170;2023-07-08T06:30:39;8.10;;;3.17;;
74371;SDS011;62885;51.374;6.170;2023-07-08T06:33:05;9.32;;;3.67;;
74371;SDS011;62885;51.374;6.170;2023-07-08T06:35:30;6.70;;;3.20;;
74371;SDS011;62885;51.374;6.170;2023-07-08T06:37:56;8.00;;;3.63;;
74371;SDS011;62885;51.374;6.170;2023-07-08T06:40:21;9.13;;;3.50;;
74371;SDS011;62885;51.374;6.170;2023-07-08T06:42:47;6.82;;;3.10;;
74371;SDS011;62885;51.374;6.170;2023-07-08T06:45:12;7.35;;;2.97;;
74371;SDS011;62885;51.374;6.170;2023-07-08T06:47:38;7.07;;;3.30;;
74371;SDS011;62885;51.374;6.170;2023-07-08T06:50:03;9.90;;;3.95;;
74371;SDS011;62885;51.374;6.170;2023-07-08T06:52:30;6.60;;;3.45;;
74371;SDS011;62885;51.374;6.170;2023-07-08T06:54:59;7.43;;;2.97;;
74371;SDS011;62885;51.374;6.170;2023-07-08T06:57:26;7.22;;;3.20;;
74371;SDS011;62885;51.374;6.170;2023-07-08T06:59:51;7.70;;;3.47;;
74371;SDS011;62885;51.374;6.170;2023-07-08T07:02:17;7.78;;;3.20;;
74371;SDS011;62885;51.374;6.170;2023-07-08T07:04:42;6.85;;;3.63;;
74371;SDS011;62885;51.374;6.170;2023-07-08T07:07:08;6.93;;;3.50;;
74371;SDS011;62885;51.374;6.170;2023-07-08T07:09:34;8.27;;;3.55;;
74371;SDS011;62885;51.374;6.170;2023-07-08T07:12:00;6.40;;;3.40;;
74371;SDS011;62885;51.374;6.170;2023-07-08T07:14:26;7.85;;;3.40;;
74371;SDS011;62885;51.374;6.170;2023-07-08T07:16:51;7.18;;;3.67;;
74371;SDS011;62885;51.374;6.170;2023-07-08T07:19:16;6.72;;;3.15;;
74371;SDS011;62885;51.374;6.170;2023-07-08T07:21:42;9.13;;;3.58;;
74371;SDS011;62885;51.374;6.170;2023-07-08T07:24:07;8.50;;;3.95;;
74371;SDS011;62885;51.374;6.170;2023-07-08T07:26:33;12.50;;;5.85;;
74371;SDS011;62885;51.374;6.170;2023-07-08T07:28:58;8.35;;;3.60;;
74371;SDS011;62885;51.374;6.170;2023-07-08T07:31:23;9.30;;;3.92;;
74371;SDS011;62885;51.374;6.170;2023-07-08T07:33:49;8.73;;;3.60;;
74371;SDS011;62885;51.374;6.170;2023-07-08T07:36:14;8.32;;;3.88;;
74371;SDS011;62885;51.374;6.170;2023-07-08T07:38:40;8.73;;;3.75;;
74371;SDS011;62885;51.374;6.170;2023-07-08T07:41:05;7.22;;;3.55;;
74371;SDS011;62885;51.374;6.170;2023-07-08T07:43:32;8.20;;;3.67;;
74371;SDS011;62885;51.374;6.170;2023-07-08T07:45:58;7.03;;;3.30;;
74371;SDS011;62885;51.374;6.170;2023-07-08T07:48:24;11.43;;;4.05;;
74371;SDS011;62885;51.374;6.170;2023-07-08T07:50:50;7.82;;;3.83;;
74371;SDS011;62885;51.374;6.170;2023-07-08T07:53:16;7.13;;;3.58;;
74371;SDS011;62885;51.374;6.170;2023-07-08T07:55:42;6.50;;;3.38;;
74371;SDS011;62885;51.374;6.170;2023-07-08T07:58:07;7.78;;;3.58;;
74371;SDS011;62885;51.374;6.170;2023-07-08T08:00:33;7.05;;;3.63;;
74371;SDS011;62885;51.374;6.170;2023-07-08T08:02:58;7.22;;;3.38;;
74371;SDS011;62885;51.374;6.170;2023-07-08T08:05:24;8.13;;;4.30;;
74371;SDS011;62885;51.374;6.170;2023-07-08T08:07:49;8.30;;;4.18;;
74371;SDS011;62885;51.374;6.170;2023-07-08T08:10:14;7.78;;;3.72;;
74371;SDS011;62885;51.374;6.170;2023-07-08T08:12:40;9.38;;;3.80;;
74371;SDS011;62885;51.374;6.170;2023-07-08T08:15:06;7.28;;;3.67;;
74371;SDS011;62885;51.374;6.170;2023-07-08T08:17:32;9.27;;;3.33;;
74371;SDS011;62885;51.374;6.170;2023-07-08T08:19:57;7.10;;;3.60;;
74371;SDS011;62885;51.374;6.170;2023-07-08T08:22:23;7.45;;;3.78;;
74371;SDS011;62885;51.374;6.170;2023-07-08T08:24:48;7.78;;;3.63;;
74371;SDS011;62885;51.374;6.170;2023-07-08T08:27:14;9.18;;;4.10;;
74371;SDS011;62885;51.374;6.170;2023-07-08T08:29:40;8.57;;;5.20;;
74371;SDS011;62885;51.374;6.170;2023-07-08T08:32:05;8.73;;;4.40;;
74371;SDS011;62885;51.374;6.170;2023-07-08T08:34:31;8.20;;;3.65;;
74371;SDS011;62885;51.374;6.170;2023-07-08T08:36:57;6.75;;;3.78;;
74371;SDS011;62885;51.374;6.170;2023-07-08T08:39:22;7.03;;;3.72;;
74371;SDS011;62885;51.374;6.170;2023-07-08T08:41:49;8.68;;;3.80;;
74371;SDS011;62885;51.374;6.170;2023-07-08T08:44:20;7.28;;;3.90;;
74371;SDS011;62885;51.374;6.170;2023-07-08T08:47:41;11.02;;;4.20;;
74371;SDS011;62885;51.374;6.170;2023-07-08T08:49:51;7.22;;;3.75;;
74371;SDS011;62885;51.374;6.170;2023-07-08T08:52:22;8.85;;;3.83;;
74371;SDS011;62885;51.374;6.170;2023-07-08T08:54:47;9.80;;;4.03;;
74371;SDS011;62885;51.374;6.170;2023-07-08T08:59:50;7.57;;;4.05;;
74371;SDS011;62885;51.374;6.170;2023-07-08T09:02:28;8.70;;;4.05;;
74371;SDS011;62885;51.374;6.170;2023-07-08T09:05:06;8.50;;;4.05;;
74371;SDS011;62885;51.374;6.170;2023-07-08T09:07:44;7.68;;;3.75;;
74371;SDS011;62885;51.374;6.170;2023-07-08T09:12:55;8.95;;;3.88;;
74371;SDS011;62885;51.374;6.170;2023-07-08T09:15:22;9.02;;;4.82;;
74371;SDS011;62885;51.374;6.170;2023-07-08T09:17:51;7.50;;;3.95;;
74371;SDS011;62885;51.374;6.170;2023-07-08T09:20:27;8.85;;;3.97;;
74371;SDS011;62885;51.374;6.170;2023-07-08T09:22:56;9.57;;;4.22;;
74371;SDS011;62885;51.374;6.170;2023-07-08T09:28:01;12.80;;;5.20;;
74371;SDS011;62885;51.374;6.170;2023-07-08T09:30:27;10.23;;;5.35;;
74371;SDS011;62885;51.374;6.170;2023-07-08T09:32:55;8.20;;;4.03;;
74371;SDS011;62885;51.374;6.170;2023-07-08T09:35:23;12.40;;;4.57;;
74371;SDS011;62885;51.374;6.170;2023-07-08T09:37:53;8.30;;;3.70;;
74371;SDS011;62885;51.374;6.170;2023-07-08T09:42:55;9.70;;;4.38;;
74371;SDS011;62885;51.374;6.170;2023-07-08T09:45:27;8.50;;;4.05;;
74371;SDS011;62885;51.374;6.170;2023-07-08T09:47:54;8.15;;;3.80;;
74371;SDS011;62885;51.374;6.170;2023-07-08T09:52:52;8.68;;;4.43;;
74371;SDS011;62885;51.374;6.170;2023-07-08T09:55:20;7.40;;;4.13;;
74371;SDS011;62885;51.374;6.170;2023-07-08T09:57:46;9.52;;;4.50;;
74371;SDS011;62885;51.374;6.170;2023-07-08T10:00:14;8.55;;;4.35;;
74371;SDS011;62885;51.374;6.170;2023-07-08T10:02:43;9.25;;;3.95;;
74371;SDS011;62885;51.374;6.170;2023-07-08T10:07:50;7.97;;;4.07;;
74371;SDS011;62885;51.374;6.170;2023-07-08T10:10:22;7.95;;;4.07;;
74371;SDS011;62885;51.374;6.170;2023-07-08T10:13:37;8.10;;;4.00;;
74371;SDS011;62885;51.374;6.170;2023-07-08T10:15:43;7.07;;;3.88;;
74371;SDS011;62885;51.374;6.170;2023-07-08T10:18:16;8.63;;;4.50;;
74371;SDS011;62885;51.374;6.170;2023-07-08T10:26:09;10.15;;;4.63;;
74371;SDS011;62885;51.374;6.170;2023-07-08T10:44:38;8.93;;;4.35;;
74371;SDS011;62885;51.374;6.170;2023-07-08T10:47:39;9.77;;;4.68;;
74371;SDS011;62885;51.374;6.170;2023-07-08T11:00:56;9.40;;;4.25;;
74371;SDS011;62885;51.374;6.170;2023-07-08T11:06:12;9.90;;;4.25;;
74371;SDS011;62885;51.374;6.170;2023-07-08T11:08:53;8.65;;;4.25;;
74371;SDS011;62885;51.374;6.170;2023-07-08T11:13:50;8.97;;;4.20;;
74371;SDS011;62885;51.374;6.170;2023-07-08T11:16:41;8.85;;;4.43;;
74371;SDS011;62885;51.374;6.170;2023-07-08T11:19:24;10.63;;;3.92;;
74371;SDS011;62885;51.374;6.170;2023-07-08T11:21:57;9.82;;;4.20;;
74371;SDS011;62885;51.374;6.170;2023-07-08T11:24:31;10.38;;;4.57;;
74371;SDS011;62885;51.374;6.170;2023-07-08T11:27:04;10.45;;;4.72;;
74371;SDS011;62885;51.374;6.170;2023-07-08T11:29:38;9.10;;;4.35;;
74371;SDS011;62885;51.374;6.170;2023-07-08T11:32:08;10.85;;;4.43;;
74371;SDS011;62885;51.374;6.170;2023-07-08T11:34:39;8.77;;;4.45;;
74371;SDS011;62885;51.374;6.170;2023-07-08T11:37:07;9.25;;;4.63;;
74371;SDS011;62885;51.374;6.170;2023-07-08T11:39:38;9.98;;;5.18;;
74371;SDS011;62885;51.374;6.170;2023-07-08T11:42:30;7.88;;;4.13;;
74371;SDS011;62885;51.374;6.170;2023-07-08T11:45:18;7.57;;;4.05;;
74371;SDS011;62885;51.374;6.170;2023-07-08T11:47:53;9.63;;;4.43;;
74371;SDS011;62885;51.374;6.170;2023-07-08T11:50:31;9.65;;;4.07;;
74371;SDS011;62885;51.374;6.170;2023-07-08T11:53:02;8.95;;;4.18;;
74371;SDS011;62885;51.374;6.170;2023-07-08T11:55:56;9.75;;;4.20;;
74371;SDS011;62885;51.374;6.170;2023-07-08T12:01:19;8.27;;;4.13;;
74371;SDS011;62885;51.374;6.170;2023-07-08T12:04:30;8.32;;;3.90;;
74371;SDS011;62885;51.374;6.170;2023-07-08T12:07:14;8.60;;;4.03;;
74371;SDS011;62885;51.374;6.170;2023-07-08T12:09:47;9.50;;;3.80;;
74371;SDS011;62885;51.374;6.170;2023-07-08T12:12:22;12.50;;;3.83;;
74371;SDS011;62885;51.374;6.170;2023-07-08T12:17:15;7.68;;;4.00;;
74371;SDS011;62885;51.374;6.170;2023-07-08T12:19:42;8.88;;;3.88;;
74371;SDS011;62885;51.374;6.170;2023-07-08T12:22:10;10.02;;;3.92;;
74371;SDS011;62885;51.374;6.170;2023-07-08T12:24:37;9.75;;;3.90;;
74371;SDS011;62885;51.374;6.170;2023-07-08T12:27:03;9.25;;;4.05;;
74371;SDS011;62885;51.374;6.170;2023-07-08T12:29:28;11.23;;;4.32;;
74371;SDS011;62885;51.374;6.170;2023-07-08T12:31:54;8.43;;;3.92;;
74371;SDS011;62885;51.374;6.170;2023-07-08T12:34:20;9.27;;;4.00;;
74371;SDS011;62885;51.374;6.170;2023-07-08T12:36:50;8.23;;;4.20;;
74371;SDS011;62885;51.374;6.170;2023-07-08T12:39:15;7.47;;;3.92;;
74371;SDS011;62885;51.374;6.170;2023-07-08T12:41:42;8.52;;;3.92;;
74371;SDS011;62885;51.374;6.170;2023-07-08T12:44:20;9.57;;;4.05;;
74371;SDS011;62885;51.374;6.170;2023-07-08T12:46:48;7.97;;;3.50;;
74371;SDS011;62885;51.374;6.170;2023-07-08T12:49:15;9.80;;;3.30;;
74371;SDS011;62885;51.374;6.170;2023-07-08T12:51:42;9.38;;;3.97;;
74371;SDS011;62885;51.374;6.170;2023-07-08T12:54:09;9.38;;;3.95;;
74371;SDS011;62885;51.374;6.170;2023-07-08T12:56:36;7.07;;;3.58;;
74371;SDS011;62885;51.374;6.170;2023-07-08T12:59:03;7.68;;;4.10;;
74371;SDS011;62885;51.374;6.170;2023-07-08T13:01:29;9.05;;;3.67;;
74371;SDS011;62885;51.374;6.170;2023-07-08T13:03:59;8.10;;;4.20;;
74371;SDS011;62885;51.374;6.170;2023-07-08T13:06:31;11.27;;;4.88;;
74371;SDS011;62885;51.374;6.170;2023-07-08T13:11:53;9.48;;;3.58;;
74371;SDS011;62885;51.374;6.170;2023-07-08T13:14:21;9.23;;;3.90;;
74371;SDS011;62885;51.374;6.170;2023-07-08T13:16:48;10.35;;;4.25;;
74371;SDS011;62885;51.374;6.170;2023-07-08T13:19:14;9.50;;;3.95;;
74371;SDS011;62885;51.374;6.170;2023-07-08T13:21:40;8.90;;;3.78;;
74371;SDS011;62885;51.374;6.170;2023-07-08T13:24:09;10.57;;;4.28;;
74371;SDS011;62885;51.374;6.170;2023-07-08T13:26:36;8.30;;;4.43;;
74371;SDS011;62885;51.374;6.170;2023-07-08T13:29:12;9.27;;;4.35;;
74371;SDS011;62885;51.374;6.170;2023-07-08T13:31:40;9.40;;;4.60;;
74371;SDS011;62885;51.374;6.170;2023-07-08T13:34:08;9.77;;;3.85;;
74371;SDS011;62885;51.374;6.170;2023-07-08T13:36:40;9.65;;;4.03;;
74371;SDS011;62885;51.374;6.170;2023-07-08T13:39:09;8.63;;;4.07;;
74371;SDS011;62885;51.374;6.170;2023-07-08T13:41:44;10.35;;;4.13;;
74371;SDS011;62885;51.374;6.170;2023-07-08T13:44:10;8.02;;;3.83;;
74371;SDS011;62885;51.374;6.170;2023-07-08T13:46:37;7.95;;;4.15;;
74371;SDS011;62885;51.374;6.170;2023-07-08T13:49:12;7.90;;;3.63;;
74371;SDS011;62885;51.374;6.170;2023-07-08T13:51:45;7.22;;;3.90;;
74371;SDS011;62885;51.374;6.170;2023-07-08T13:54:15;7.03;;;3.88;;
74371;SDS011;62885;51.374;6.170;2023-07-08T13:56:46;8.30;;;3.40;;
74371;SDS011;62885;51.374;6.170;2023-07-08T13:59:16;7.25;;;3.53;;
74371;SDS011;62885;51.374;6.170;2023-07-08T14:01:44;11.25;;;3.70;;
74371;SDS011;62885;51.374;6.170;2023-07-08T14:04:10;8.88;;;4.28;;
74371;SDS011;62885;51.374;6.170;2023-07-08T14:06:39;8.27;;;4.45;;
74371;SDS011;62885;51.374;6.170;2023-07-08T14:11:41;9.18;;;3.70;;
74371;SDS011;62885;51.374;6.170;2023-07-08T14:14:08;8.60;;;3.75;;
74371;SDS011;62885;51.374;6.170;2023-07-08T14:16:35;7.95;;;3.88;;
74371;SDS011;62885;51.374;6.170;2023-07-08T14:19:05;8.43;;;3.88;;
74371;SDS011;62885;51.374;6.170;2023-07-08T14:21:33;8.35;;;3.67;;
74371;SDS011;62885;51.374;6.170;2023-07-08T14:24:00;8.85;;;3.80;;
74371;SDS011;62885;51.374;6.170;2023-07-08T14:26:25;7.57;;;3.58;;
74371;SDS011;62885;51.374;6.170;2023-07-08T14:28:53;8.05;;;3.72;;
74371;SDS011;62885;51.374;6.170;2023-07-08T14:31:20;7.97;;;3.55;;
74371;SDS011;62885;51.374;6.170;2023-07-08T14:33:51;8.85;;;3.60;;
74371;SDS011;62885;51.374;6.170;2023-07-08T14:36:25;8.98;;;3.88;;
74371;SDS011;62885;51.374;6.170;2023-07-08T14:38:51;10.02;;;4.20;;
74371;SDS011;62885;51.374;6.170;2023-07-08T14:41:16;8.57;;;3.95;;
74371;SDS011;62885;51.374;6.170;2023-07-08T14:43:41;8.18;;;4.13;;
74371;SDS011;62885;51.374;6.170;2023-07-08T14:46:08;10.93;;;4.00;;
74371;SDS011;62885;51.374;6.170;2023-07-08T14:48:34;11.55;;;3.72;;
74371;SDS011;62885;51.374;6.170;2023-07-08T14:51:00;8.30;;;3.83;;
74371;SDS011;62885;51.374;6.170;2023-07-08T14:53:25;9.50;;;4.22;;
74371;SDS011;62885;51.374;6.170;2023-07-08T14:55:52;10.85;;;3.65;;
74371;SDS011;62885;51.374;6.170;2023-07-08T14:58:24;7.68;;;3.90;;
74371;SDS011;62885;51.374;6.170;2023-07-08T15:00:53;6.70;;;3.58;;
74371;SDS011;62885;51.374;6.170;2023-07-08T15:05:47;9.20;;;3.75;;
74371;SDS011;62885;51.374;6.170;2023-07-08T15:08:12;8.40;;;3.78;;
74371;SDS011;62885;51.374;6.170;2023-07-08T15:10:38;9.68;;;3.85;;
74371;SDS011;62885;51.374;6.170;2023-07-08T15:15:38;12.70;;;3.70;;
74371;SDS011;62885;51.374;6.170;2023-07-08T15:18:12;6.70;;;3.20;;
74371;SDS011;62885;51.374;6.170;2023-07-08T15:20:39;9.93;;;3.67;;
74371;SDS011;62885;51.374;6.170;2023-07-08T15:23:05;7.65;;;3.72;;
74371;SDS011;62885;51.374;6.170;2023-07-08T15:25:31;7.72;;;3.50;;
74371;SDS011;62885;51.374;6.170;2023-07-08T15:27:59;6.68;;;3.42;;
74371;SDS011;62885;51.374;6.170;2023-07-08T15:30:27;10.55;;;3.80;;
74371;SDS011;62885;51.374;6.170;2023-07-08T15:32:54;7.88;;;3.78;;
74371;SDS011;62885;51.374;6.170;2023-07-08T15:35:21;7.15;;;3.30;;
74371;SDS011;62885;51.374;6.170;2023-07-08T15:37:55;9.68;;;4.10;;
74371;SDS011;62885;51.374;6.170;2023-07-08T15:40:21;6.75;;;3.28;;
74371;SDS011;62885;51.374;6.170;2023-07-08T15:42:49;8.48;;;3.45;;
74371;SDS011;62885;51.374;6.170;2023-07-08T15:45:24;11.35;;;3.70;;
74371;SDS011;62885;51.374;6.170;2023-07-08T15:47:50;9.43;;;4.32;;
74371;SDS011;62885;51.374;6.170;2023-07-08T15:50:17;9.15;;;4.05;;
74371;SDS011;62885;51.374;6.170;2023-07-08T15:52:43;7.95;;;4.35;;
74371;SDS011;62885;51.374;6.170;2023-07-08T15:55:09;8.70;;;4.60;;
74371;SDS011;62885;51.374;6.170;2023-07-08T15:57:50;8.07;;;3.83;;
74371;SDS011;62885;51.374;6.170;2023-07-08T16:00:19;9.90;;;3.90;;
74371;SDS011;62885;51.374;6.170;2023-07-08T16:02:49;9.05;;;4.25;;
74371;SDS011;62885;51.374;6.170;2023-07-08T16:05:18;8.85;;;3.70;;
74371;SDS011;62885;51.374;6.170;2023-07-08T16:07:47;7.95;;;3.55;;